sensor_id;sensor_type;location;lat;lon;timestamp;pressure;altitude;pressure_sealevel;temperature;humidity
11347;BME280;5728;42.722;23.258;2023-02-25T00:00:13;94146.28;;;7.38;100.00
11347;BME280;5728;42.722;23.258;2023-02-25T00:02:43;94153.47;;;7.15;99.89
11347;BME280;5728;42.722;23.258;2023-02-25T00:05:10;94144.66;;;7.31;100.00
11347;BME280;5728;42.722;23.258;2023-02-25T00:07:38;94152.97;;;7.51;100.00
11347;BME280;5728;42.722;23.258;2023-02-25T00:10:07;94140.38;;;7.30;100.00
11347;BME280;5728;42.722;23.258;2023-02-25T00:12:35;94163.50;;;7.36;98.17
11347;BME280;5728;42.722;23.258;2023-02-25T00:15:02;94138.69;;;7.26;99.16
11347;BME280;5728;42.722;23.258;2023-02-25T00:17:29;94149.97;;;7.19;97.82
11347;BME280;5728;42.722;23.258;2023-02-25T00:19:56;94145.25;;;6.82;99.41
11347;BME280;5728;42.722;23.258;2023-02-25T00:22:23;94164.38;;;6.60;100.00
11347;BME280;5728;42.722;23.258;2023-02-25T00:24:51;94136.50;;;6.15;100.00
11347;BME280;5728;42.722;23.258;2023-02-25T00:27:20;94154.38;;;6.30;100.00
11347;BME280;5728;42.722;23.258;2023-02-25T00:29:50;94149.38;;;6.16;100.00
11347;BME280;5728;42.722;23.258;2023-02-25T00:32:17;94132.94;;;6.29;100.00
11347;BME280;5728;42.722;23.258;2023-02-25T00:34:44;94120.56;;;6.63;100.00
11347;BME280;5728;42.722;23.258;2023-02-25T00:37:11;94123.25;;;6.54;100.00
11347;BME280;5728;42.722;23.258;2023-02-25T00:39:38;94129.72;;;6.88;100.00
11347;BME280;5728;42.722;23.258;2023-02-25T00:42:08;94133.59;;;6.48;100.00
11347;BME280;5728;42.722;23.258;2023-02-25T00:44:37;94121.06;;;6.92;100.00
11347;BME280;5728;42.722;23.258;2023-02-25T00:47:04;94118.56;;;6.89;100.00
11347;BME280;5728;42.722;23.258;2023-02-25T00:49:32;94113.34;;;6.94;100.00
11347;BME280;5728;42.722;23.258;2023-02-25T00:51:59;94119.53;;;6.79;100.00
11347;BME280;5728;42.722;23.258;2023-02-25T00:54:26;94121.56;;;6.50;100.00
11347;BME280;5728;42.722;23.258;2023-02-25T00:56:52;94123.50;;;6.30;100.00
11347;BME280;5728;42.722;23.258;2023-02-25T00:59:19;94107.84;;;6.51;100.00
11347;BME280;5728;42.722;23.258;2023-02-25T01:01:48;94095.03;;;6.42;100.00
11347;BME280;5728;42.722;23.258;2023-02-25T01:04:14;94081.25;;;6.49;100.00
11347;BME280;5728;42.722;23.258;2023-02-25T01:06:41;94088.78;;;6.66;100.00
11347;BME280;5728;42.722;23.258;2023-02-25T01:09:08;94079.16;;;6.80;100.00
11347;BME280;5728;42.722;23.258;2023-02-25T01:11:39;94075.56;;;6.94;100.00
11347;BME280;5728;42.722;23.258;2023-02-25T01:14:09;94071.19;;;6.99;100.00
11347;BME280;5728;42.722;23.258;2023-02-25T01:16:36;94092.78;;;6.88;100.00
11347;BME280;5728;42.722;23.258;2023-02-25T01:19:07;94077.44;;;6.82;100.00
11347;BME280;5728;42.722;23.258;2023-02-25T01:21:36;94088.09;;;7.19;100.00
11347;BME280;5728;42.722;23.258;2023-02-25T01:24:05;94076.81;;;6.62;100.00
11347;BME280;5728;42.722;23.258;2023-02-25T01:26:34;94082.28;;;6.33;100.00
11347;BME280;5728;42.722;23.258;2023-02-25T01:29:05;94072.78;;;6.38;100.00
11347;BME280;5728;42.722;23.258;2023-02-25T01:31:32;94075.94;;;6.63;100.00
11347;BME280;5728;42.722;23.258;2023-02-25T01:34:01;94070.03;;;6.53;100.00
11347;BME280;5728;42.722;23.258;2023-02-25T01:36:31;94078.09;;;6.96;100.00
11347;BME280;5728;42.722;23.258;2023-02-25T01:38:58;94069.31;;;7.12;100.00
11347;BME280;5728;42.722;23.258;2023-02-25T01:41:27;94057.09;;;7.25;100.00
11347;BME280;5728;42.722;23.258;2023-02-25T01:44:05;94072.94;;;6.96;100.00
11347;BME280;5728;42.722;23.258;2023-02-25T01:46:33;94062.03;;;7.38;100.00
11347;BME280;5728;42.722;23.258;2023-02-25T01:49:01;94066.03;;;6.99;100.00
11347;BME280;5728;42.722;23.258;2023-02-25T01:51:30;94068.03;;;6.75;99.99
11347;BME280;5728;42.722;23.258;2023-02-25T01:53:59;94079.97;;;6.83;100.00
11347;BME280;5728;42.722;23.258;2023-02-25T01:56:29;94077.56;;;6.71;100.00
11347;BME280;5728;42.722;23.258;2023-02-25T01:58:57;94071.41;;;6.80;100.00
11347;BME280;5728;42.722;23.258;2023-02-25T02:01:26;94070.53;;;6.84;100.00
11347;BME280;5728;42.722;23.258;2023-02-25T02:03:55;94065.25;;;6.94;100.00
11347;BME280;5728;42.722;23.258;2023-02-25T02:06:24;94071.69;;;6.57;100.00
11347;BME280;5728;42.722;23.258;2023-02-25T02:08:54;94062.25;;;6.59;100.00
11347;BME280;5728;42.722;23.258;2023-02-25T02:11:20;94059.31;;;6.85;100.00
11347;BME280;5728;42.722;23.258;2023-02-25T02:13:49;94065.50;;;6.73;100.00
11347;BME280;5728;42.722;23.258;2023-02-25T02:16:30;94072.44;;;6.68;100.00
11347;BME280;5728;42.722;23.258;2023-02-25T02:19:13;94059.84;;;6.44;100.00
11347;BME280;5728;42.722;23.258;2023-02-25T02:21:54;94049.31;;;6.62;100.00
11347;BME280;5728;42.722;23.258;2023-02-25T02:27:59;94047.41;;;6.79;100.00
11347;BME280;5728;42.722;23.258;2023-02-25T02:30:39;94030.41;;;6.63;99.91
11347;BME280;5728;42.722;23.258;2023-02-25T02:33:18;94041.13;;;6.98;100.00
11347;BME280;5728;42.722;23.258;2023-02-25T02:35:50;94051.53;;;6.91;100.00
11347;BME280;5728;42.722;23.258;2023-02-25T02:38:25;94047.00;;;7.10;100.00
11347;BME280;5728;42.722;23.258;2023-02-25T02:41:03;94036.34;;;7.32;100.00
11347;BME280;5728;42.722;23.258;2023-02-25T02:43:36;94043.34;;;7.23;100.00
11347;BME280;5728;42.722;23.258;2023-02-25T02:46:09;94025.91;;;7.40;100.00
11347;BME280;5728;42.722;23.258;2023-02-25T02:48:45;94020.53;;;7.55;99.34
11347;BME280;5728;42.722;23.258;2023-02-25T02:51:16;94019.03;;;7.39;96.08
11347;BME280;5728;42.722;23.258;2023-02-25T02:53:48;94008.84;;;7.31;96.55
11347;BME280;5728;42.722;23.258;2023-02-25T02:56:18;94008.22;;;7.16;96.85
11347;BME280;5728;42.722;23.258;2023-02-25T02:58:49;94001.06;;;7.33;97.86
11347;BME280;5728;42.722;23.258;2023-02-25T03:01:21;94011.19;;;6.88;97.12
11347;BME280;5728;42.722;23.258;2023-02-25T03:03:53;94023.84;;;7.05;97.34
11347;BME280;5728;42.722;23.258;2023-02-25T03:06:27;94009.03;;;7.18;97.68
11347;BME280;5728;42.722;23.258;2023-02-25T03:09:02;94014.31;;;7.12;97.77
11347;BME280;5728;42.722;23.258;2023-02-25T03:11:29;94017.66;;;7.17;97.81
11347;BME280;5728;42.722;23.258;2023-02-25T03:13:57;94024.47;;;7.21;97.63
11347;BME280;5728;42.722;23.258;2023-02-25T03:16:27;94021.81;;;7.27;96.67
11347;BME280;5728;42.722;23.258;2023-02-25T03:19:00;94008.28;;;7.11;97.79
11347;BME280;5728;42.722;23.258;2023-02-25T03:21:32;94008.25;;;7.13;97.57
11347;BME280;5728;42.722;23.258;2023-02-25T03:24:02;94020.47;;;7.00;97.78
11347;BME280;5728;42.722;23.258;2023-02-25T03:26:32;94018.44;;;7.22;97.10
11347;BME280;5728;42.722;23.258;2023-02-25T03:29:01;94010.84;;;7.13;96.49
11347;BME280;5728;42.722;23.258;2023-02-25T03:31:31;94023.94;;;6.99;95.65
11347;BME280;5728;42.722;23.258;2023-02-25T03:34:05;94011.53;;;6.64;96.88
11347;BME280;5728;42.722;23.258;2023-02-25T03:36:40;94019.97;;;5.99;98.15
11347;BME280;5728;42.722;23.258;2023-02-25T03:39:10;94014.47;;;6.32;99.70
11347;BME280;5728;42.722;23.258;2023-02-25T03:41:40;94011.72;;;6.49;99.99
11347;BME280;5728;42.722;23.258;2023-02-25T03:44:11;94011.53;;;6.64;100.00
11347;BME280;5728;42.722;23.258;2023-02-25T03:46:42;94001.94;;;6.04;99.21
11347;BME280;5728;42.722;23.258;2023-02-25T03:49:15;94005.22;;;6.18;100.00
11347;BME280;5728;42.722;23.258;2023-02-25T03:51:46;93977.69;;;6.23;100.00
11347;BME280;5728;42.722;23.258;2023-02-25T03:54:14;93994.78;;;6.27;100.00
11347;BME280;5728;42.722;23.258;2023-02-25T03:56:44;94015.72;;;5.97;99.64
11347;BME280;5728;42.722;23.258;2023-02-25T03:59:11;93984.59;;;6.21;100.00
11347;BME280;5728;42.722;23.258;2023-02-25T04:01:39;94022.56;;;6.01;100.00
11347;BME280;5728;42.722;23.258;2023-02-25T04:04:08;94001.25;;;5.88;100.00
11347;BME280;5728;42.722;23.258;2023-02-25T04:06:36;93998.47;;;6.08;100.00
11347;BME280;5728;42.722;23.258;2023-02-25T04:09:03;94025.56;;;6.39;100.00
11347;BME280;5728;42.722;23.258;2023-02-25T04:11:30;94005.16;;;6.24;100.00
11347;BME280;5728;42.722;23.258;2023-02-25T04:13:57;94009.22;;;6.43;100.00
11347;BME280;5728;42.722;23.258;2023-02-25T04:16:24;93989.47;;;6.42;100.00
11347;BME280;5728;42.722;23.258;2023-02-25T04:18:52;94021.53;;;6.15;99.76
11347;BME280;5728;42.722;23.258;2023-02-25T04:21:26;93998.47;;;6.08;100.00
11347;BME280;5728;42.722;23.258;2023-02-25T04:23:55;94007.09;;;6.04;100.00
11347;BME280;5728;42.722;23.258;2023-02-25T04:26:22;94001.47;;;6.43;100.00
11347;BME280;5728;42.722;23.258;2023-02-25T04:28:49;93960.94;;;5.89;100.00
11347;BME280;5728;42.722;23.258;2023-02-25T04:31:16;94002.25;;;5.70;100.00
11347;BME280;5728;42.722;23.258;2023-02-25T04:33:43;93976.31;;;5.92;100.00
11347;BME280;5728;42.722;23.258;2023-02-25T04:36:28;94007.59;;;5.46;100.00
11347;BME280;5728;42.722;23.258;2023-02-25T04:38:57;93961.84;;;5.80;100.00
11347;BME280;5728;42.722;23.258;2023-02-25T04:41:28;93981.69;;;5.70;100.00
11347;BME280;5728;42.722;23.258;2023-02-25T04:43:55;93962.47;;;6.05;100.00
11347;BME280;5728;42.722;23.258;2023-02-25T04:46:22;93936.19;;;5.75;100.00
11347;BME280;5728;42.722;23.258;2023-02-25T04:48:48;93957.53;;;5.84;100.00
11347;BME280;5728;42.722;23.258;2023-02-25T04:51:15;93951.53;;;5.85;100.00
11347;BME280;5728;42.722;23.258;2023-02-25T04:53:42;93950.41;;;6.11;100.00
11347;BME280;5728;42.722;23.258;2023-02-25T04:56:12;93969.19;;;6.18;100.00
11347;BME280;5728;42.722;23.258;2023-02-25T04:58:39;93949.91;;;5.74;100.00
11347;BME280;5728;42.722;23.258;2023-02-25T05:01:06;93956.25;;;6.22;100.00
11347;BME280;5728;42.722;23.258;2023-02-25T05:03:35;93968.22;;;6.25;100.00
11347;BME280;5728;42.722;23.258;2023-02-25T05:06:03;93940.81;;;6.22;100.00
11347;BME280;5728;42.722;23.258;2023-02-25T05:08:30;93958.38;;;5.89;100.00
11347;BME280;5728;42.722;23.258;2023-02-25T05:10:57;93960.72;;;6.07;100.00
11347;BME280;5728;42.722;23.258;2023-02-25T05:13:26;93959.91;;;6.02;100.00
11347;BME280;5728;42.722;23.258;2023-02-25T05:16:03;93961.69;;;5.98;100.00
11347;BME280;5728;42.722;23.258;2023-02-25T05:18:29;93951.41;;;5.98;100.00
11347;BME280;5728;42.722;23.258;2023-02-25T05:20:56;93958.22;;;6.04;100.00
11347;BME280;5728;42.722;23.258;2023-02-25T05:23:24;93932.59;;;5.92;99.14
11347;BME280;5728;42.722;23.258;2023-02-25T05:25:51;93959.56;;;5.51;100.00
11347;BME280;5728;42.722;23.258;2023-02-25T05:28:18;93962.78;;;5.73;100.00
11347;BME280;5728;42.722;23.258;2023-02-25T05:30:46;93957.63;;;5.74;100.00
11347;BME280;5728;42.722;23.258;2023-02-25T05:33:13;93958.06;;;6.14;100.00
11347;BME280;5728;42.722;23.258;2023-02-25T05:35:39;93955.75;;;5.92;100.00
11347;BME280;5728;42.722;23.258;2023-02-25T05:38:06;93963.44;;;5.96;100.00
11347;BME280;5728;42.722;23.258;2023-02-25T05:40:33;93957.34;;;6.02;100.00
11347;BME280;5728;42.722;23.258;2023-02-25T05:43:00;93967.59;;;6.05;100.00
11347;BME280;5728;42.722;23.258;2023-02-25T05:45:27;93962.56;;;5.96;100.00
11347;BME280;5728;42.722;23.258;2023-02-25T05:47:55;93972.56;;;6.23;100.00
11347;BME280;5728;42.722;23.258;2023-02-25T05:50:22;93991.19;;;6.43;100.00
11347;BME280;5728;42.722;23.258;2023-02-25T05:52:48;93989.28;;;6.57;100.00
11347;BME280;5728;42.722;23.258;2023-02-25T05:55:15;93972.22;;;6.47;100.00
11347;BME280;5728;42.722;23.258;2023-02-25T05:57:42;93967.34;;;6.29;99.57
11347;BME280;5728;42.722;23.258;2023-02-25T06:00:10;93973.91;;;6.51;100.00
11347;BME280;5728;42.722;23.258;2023-02-25T06:02:39;93987.84;;;6.97;100.00
11347;BME280;5728;42.722;23.258;2023-02-25T06:05:08;93996.81;;;6.74;99.42
11347;BME280;5728;42.722;23.258;2023-02-25T06:07:34;93975.97;;;6.22;99.25
11347;BME280;5728;42.722;23.258;2023-02-25T06:10:02;93983.44;;;6.44;100.00
11347;BME280;5728;42.722;23.258;2023-02-25T06:12:31;94015.44;;;6.24;98.22
11347;BME280;5728;42.722;23.258;2023-02-25T06:14:58;93999.28;;;6.11;98.80
11347;BME280;5728;42.722;23.258;2023-02-25T06:17:25;93986.25;;;6.26;100.00
11347;BME280;5728;42.722;23.258;2023-02-25T06:19:52;93973.22;;;6.38;99.83
11347;BME280;5728;42.722;23.258;2023-02-25T06:22:21;93966.13;;;6.56;100.00
11347;BME280;5728;42.722;23.258;2023-02-25T06:24:48;93985.91;;;6.52;99.56
11347;BME280;5728;42.722;23.258;2023-02-25T06:27:15;93985.63;;;6.73;100.00
11347;BME280;5728;42.722;23.258;2023-02-25T06:29:41;93991.31;;;6.34;99.39
11347;BME280;5728;42.722;23.258;2023-02-25T06:32:09;93996.44;;;6.99;100.00
11347;BME280;5728;42.722;23.258;2023-02-25T06:34:37;94001.72;;;7.47;100.00
11347;BME280;5728;42.722;23.258;2023-02-25T06:37:04;94003.81;;;7.77;100.00
11347;BME280;5728;42.722;23.258;2023-02-25T06:39:32;94016.63;;;7.30;97.57
11347;BME280;5728;42.722;23.258;2023-02-25T06:42:00;93988.00;;;7.45;97.52
11347;BME280;5728;42.722;23.258;2023-02-25T06:44:26;94004.25;;;6.93;96.58
11347;BME280;5728;42.722;23.258;2023-02-25T06:46:54;93987.25;;;7.38;99.82
11347;BME280;5728;42.722;23.258;2023-02-25T06:49:21;93984.75;;;7.34;98.24
11347;BME280;5728;42.722;23.258;2023-02-25T06:51:48;93975.38;;;7.30;96.21
11347;BME280;5728;42.722;23.258;2023-02-25T06:54:15;93983.53;;;7.01;96.79
11347;BME280;5728;42.722;23.258;2023-02-25T06:56:43;93955.78;;;7.17;97.66
11347;BME280;5728;42.722;23.258;2023-02-25T06:59:10;93933.38;;;7.22;98.08
11347;BME280;5728;42.722;23.258;2023-02-25T07:01:37;93957.56;;;7.13;97.06
11347;BME280;5728;42.722;23.258;2023-02-25T07:04:04;93945.91;;;7.43;98.21
11347;BME280;5728;42.722;23.258;2023-02-25T07:06:31;93940.13;;;7.29;96.46
11347;BME280;5728;42.722;23.258;2023-02-25T07:08:58;93956.94;;;8.00;98.40
11347;BME280;5728;42.722;23.258;2023-02-25T07:11:28;93954.69;;;8.26;98.90
11347;BME280;5728;42.722;23.258;2023-02-25T07:13:57;93944.53;;;8.17;92.67
11347;BME280;5728;42.722;23.258;2023-02-25T07:16:24;93950.56;;;8.17;91.79
11347;BME280;5728;42.722;23.258;2023-02-25T07:18:50;93943.88;;;8.06;92.14
11347;BME280;5728;42.722;23.258;2023-02-25T07:21:18;93930.97;;;8.06;92.40
11347;BME280;5728;42.722;23.258;2023-02-25T07:23:44;93934.03;;;8.27;91.70
11347;BME280;5728;42.722;23.258;2023-02-25T07:26:13;93949.47;;;8.30;90.71
11347;BME280;5728;42.722;23.258;2023-02-25T07:28:40;93900.59;;;8.18;92.81
11347;BME280;5728;42.722;23.258;2023-02-25T07:31:10;93903.06;;;8.27;92.45
11347;BME280;5728;42.722;23.258;2023-02-25T07:33:38;93915.91;;;8.70;92.69
11347;BME280;5728;42.722;23.258;2023-02-25T07:36:06;93873.41;;;8.82;92.92
11347;BME280;5728;42.722;23.258;2023-02-25T07:38:34;93900.19;;;9.16;91.75
11347;BME280;5728;42.722;23.258;2023-02-25T07:41:05;93892.88;;;9.32;89.59
11347;BME280;5728;42.722;23.258;2023-02-25T07:43:33;93894.75;;;9.60;87.59
11347;BME280;5728;42.722;23.258;2023-02-25T07:46:00;93874.69;;;9.69;87.43
11347;BME280;5728;42.722;23.258;2023-02-25T07:48:28;93883.88;;;9.80;84.60
11347;BME280;5728;42.722;23.258;2023-02-25T07:50:55;93872.72;;;9.44;85.65
11347;BME280;5728;42.722;23.258;2023-02-25T07:53:22;93877.78;;;9.15;85.67
11347;BME280;5728;42.722;23.258;2023-02-25T07:55:49;93858.88;;;9.79;89.80
11347;BME280;5728;42.722;23.258;2023-02-25T07:58:16;93870.84;;;10.15;86.59
11347;BME280;5728;42.722;23.258;2023-02-25T08:00:43;93861.66;;;10.62;86.28
11347;BME280;5728;42.722;23.258;2023-02-25T08:03:11;93848.69;;;10.92;82.48
11347;BME280;5728;42.722;23.258;2023-02-25T08:05:39;93848.38;;;10.73;82.19
11347;BME280;5728;42.722;23.258;2023-02-25T08:08:06;93831.63;;;10.84;83.17
11347;BME280;5728;42.722;23.258;2023-02-25T08:10:33;93851.75;;;11.03;82.86
11347;BME280;5728;42.722;23.258;2023-02-25T08:13:01;93862.59;;;11.15;81.67
11347;BME280;5728;42.722;23.258;2023-02-25T08:15:28;93835.19;;;11.33;80.95
11347;BME280;5728;42.722;23.258;2023-02-25T08:17:55;93847.28;;;11.08;80.68
11347;BME280;5728;42.722;23.258;2023-02-25T08:20:22;93839.91;;;11.22;80.91
11347;BME280;5728;42.722;23.258;2023-02-25T08:22:50;93846.25;;;11.39;81.27
11347;BME280;5728;42.722;23.258;2023-02-25T08:25:17;93833.00;;;11.47;79.68
11347;BME280;5728;42.722;23.258;2023-02-25T08:27:43;93855.31;;;11.26;78.86
11347;BME280;5728;42.722;23.258;2023-02-25T08:30:11;93845.13;;;11.46;79.03
11347;BME280;5728;42.722;23.258;2023-02-25T08:32:39;93840.09;;;11.42;78.64
11347;BME280;5728;42.722;23.258;2023-02-25T08:35:07;93825.63;;;11.09;77.98
11347;BME280;5728;42.722;23.258;2023-02-25T08:37:34;93832.31;;;10.89;80.24
11347;BME280;5728;42.722;23.258;2023-02-25T08:40:02;93825.22;;;11.47;80.89
11347;BME280;5728;42.722;23.258;2023-02-25T08:42:33;93795.75;;;11.48;80.25
11347;BME280;5728;42.722;23.258;2023-02-25T08:45:00;93819.44;;;11.64;79.68
11347;BME280;5728;42.722;23.258;2023-02-25T08:47:27;93813.97;;;11.73;80.50
11347;BME280;5728;42.722;23.258;2023-02-25T08:49:54;93816.16;;;11.83;78.75
11347;BME280;5728;42.722;23.258;2023-02-25T08:52:21;93817.44;;;11.96;77.84
11347;BME280;5728;42.722;23.258;2023-02-25T08:54:47;93798.75;;;11.61;77.55
11347;BME280;5728;42.722;23.258;2023-02-25T08:57:16;93823.56;;;11.20;77.74
11347;BME280;5728;42.722;23.258;2023-02-25T08:59:43;93813.81;;;11.51;79.19
11347;BME280;5728;42.722;23.258;2023-02-25T09:02:10;93805.44;;;11.43;78.19
11347;BME280;5728;42.722;23.258;2023-02-25T09:04:39;93809.56;;;11.24;79.79
11347;BME280;5728;42.722;23.258;2023-02-25T09:07:06;93795.38;;;11.34;80.11
11347;BME280;5728;42.722;23.258;2023-02-25T09:09:33;93792.94;;;11.54;80.25
11347;BME280;5728;42.722;23.258;2023-02-25T09:12:01;93789.75;;;11.46;78.87
11347;BME280;5728;42.722;23.258;2023-02-25T09:14:31;93788.47;;;11.33;80.16
11347;BME280;5728;42.722;23.258;2023-02-25T09:17:01;93777.56;;;11.23;81.47
11347;BME280;5728;42.722;23.258;2023-02-25T09:19:28;93787.22;;;11.44;81.60
11347;BME280;5728;42.722;23.258;2023-02-25T09:21:55;93765.13;;;11.33;80.68
11347;BME280;5728;42.722;23.258;2023-02-25T09:24:21;93783.94;;;11.64;80.39
11347;BME280;5728;42.722;23.258;2023-02-25T09:26:48;93785.78;;;11.61;79.55
11347;BME280;5728;42.722;23.258;2023-02-25T09:29:15;93794.00;;;11.48;79.53
11347;BME280;5728;42.722;23.258;2023-02-25T09:31:43;93795.25;;;11.88;79.71
11347;BME280;5728;42.722;23.258;2023-02-25T09:34:10;93803.59;;;11.96;78.18
11347;BME280;5728;42.722;23.258;2023-02-25T09:36:38;93763.91;;;11.68;77.66
11347;BME280;5728;42.722;23.258;2023-02-25T09:39:05;93762.19;;;11.68;78.33
11347;BME280;5728;42.722;23.258;2023-02-25T09:41:39;93778.03;;;11.85;75.85
11347;BME280;5728;42.722;23.258;2023-02-25T09:44:12;93773.38;;;11.70;75.64
11347;BME280;5728;42.722;23.258;2023-02-25T09:46:46;93737.94;;;11.43;76.64
11347;BME280;5728;42.722;23.258;2023-02-25T09:49:18;93742.25;;;11.44;75.58
11347;BME280;5728;42.722;23.258;2023-02-25T09:51:51;93742.28;;;11.67;71.90
11347;BME280;5728;42.722;23.258;2023-02-25T09:54:24;93752.38;;;11.76;73.00
11347;BME280;5728;42.722;23.258;2023-02-25T09:56:55;93724.81;;;11.72;72.61
11347;BME280;5728;42.722;23.258;2023-02-25T09:59:26;93743.69;;;11.28;73.13
11347;BME280;5728;42.722;23.258;2023-02-25T10:01:58;93735.41;;;11.41;70.86
11347;BME280;5728;42.722;23.258;2023-02-25T10:04:31;93709.97;;;11.76;66.42
11347;BME280;5728;42.722;23.258;2023-02-25T10:07:07;93726.59;;;12.16;63.83
11347;BME280;5728;42.722;23.258;2023-02-25T10:09:46;93712.22;;;12.51;61.46
11347;BME280;5728;42.722;23.258;2023-02-25T10:12:23;93715.13;;;12.87;56.96
11347;BME280;5728;42.722;23.258;2023-02-25T10:15:20;93694.75;;;13.18;55.05
11347;BME280;5728;42.722;23.258;2023-02-25T10:18:00;93682.41;;;13.42;53.73
11347;BME280;5728;42.722;23.258;2023-02-25T10:20:42;93672.03;;;13.22;56.19
11347;BME280;5728;42.722;23.258;2023-02-25T10:23:18;93690.56;;;13.34;53.80
11347;BME280;5728;42.722;23.258;2023-02-25T10:25:55;93666.59;;;14.04;48.88
11347;BME280;5728;42.722;23.258;2023-02-25T10:28:22;93653.25;;;14.10;48.75
11347;BME280;5728;42.722;23.258;2023-02-25T10:30:55;93657.28;;;14.17;48.38
11347;BME280;5728;42.722;23.258;2023-02-25T10:33:26;93676.00;;;14.25;48.32
11347;BME280;5728;42.722;23.258;2023-02-25T10:35:57;93663.56;;;14.32;47.59
11347;BME280;5728;42.722;23.258;2023-02-25T10:38:26;93685.59;;;14.43;46.66
11347;BME280;5728;42.722;23.258;2023-02-25T10:40:55;93639.22;;;14.50;46.54
11347;BME280;5728;42.722;23.258;2023-02-25T10:43:25;93623.59;;;14.50;45.88
11347;BME280;5728;42.722;23.258;2023-02-25T10:45:56;93612.97;;;14.53;46.32
11347;BME280;5728;42.722;23.258;2023-02-25T10:48:27;93653.44;;;14.61;45.62
11347;BME280;5728;42.722;23.258;2023-02-25T10:51:04;93644.69;;;14.62;45.78
11347;BME280;5728;42.722;23.258;2023-02-25T10:53:31;93639.69;;;14.58;46.02
11347;BME280;5728;42.722;23.258;2023-02-25T10:55:59;93627.47;;;14.58;45.75
11347;BME280;5728;42.722;23.258;2023-02-25T10:58:31;93637.78;;;14.61;46.36
11347;BME280;5728;42.722;23.258;2023-02-25T11:01:04;93629.03;;;14.62;46.03
11347;BME280;5728;42.722;23.258;2023-02-25T11:03:40;93621.66;;;14.53;46.03
11347;BME280;5728;42.722;23.258;2023-02-25T11:06:18;93631.34;;;14.68;46.00
11347;BME280;5728;42.722;23.258;2023-02-25T11:08:45;93618.22;;;14.70;46.32
11347;BME280;5728;42.722;23.258;2023-02-25T11:11:15;93642.84;;;14.64;46.38
11347;BME280;5728;42.722;23.258;2023-02-25T11:13:54;93613.91;;;14.69;46.50
11347;BME280;5728;42.722;23.258;2023-02-25T11:16:21;93630.28;;;14.73;45.90
11347;BME280;5728;42.722;23.258;2023-02-25T11:18:52;93587.91;;;14.67;46.23
11347;BME280;5728;42.722;23.258;2023-02-25T11:21:28;93618.47;;;14.83;46.08
11347;BME280;5728;42.722;23.258;2023-02-25T11:23:59;93605.25;;;14.86;45.98
11347;BME280;5728;42.722;23.258;2023-02-25T11:26:29;93604.41;;;14.85;45.92
11347;BME280;5728;42.722;23.258;2023-02-25T11:28:58;93593.75;;;14.90;45.83
11347;BME280;5728;42.722;23.258;2023-02-25T11:31:29;93588.44;;;14.91;46.23
11347;BME280;5728;42.722;23.258;2023-02-25T11:34:02;93587.75;;;14.88;45.93
11347;BME280;5728;42.722;23.258;2023-02-25T11:36:32;93596.03;;;14.96;46.16
11347;BME280;5728;42.722;23.258;2023-02-25T11:39:14;93583.56;;;15.01;45.88
11347;BME280;5728;42.722;23.258;2023-02-25T11:41:42;93571.53;;;14.98;46.14
11347;BME280;5728;42.722;23.258;2023-02-25T11:44:20;93595.88;;;14.99;46.49
11347;BME280;5728;42.722;23.258;2023-02-25T11:47:02;93599.25;;;15.01;46.19
11347;BME280;5728;42.722;23.258;2023-02-25T11:49:57;93568.09;;;14.98;46.83
11347;BME280;5728;42.722;23.258;2023-02-25T11:52:35;93566.41;;;14.97;46.98
11347;BME280;5728;42.722;23.258;2023-02-25T11:55:14;93578.75;;;15.10;46.68
11347;BME280;5728;42.722;23.258;2023-02-25T11:57:49;93584.97;;;15.08;47.03
11347;BME280;5728;42.722;23.258;2023-02-25T12:00:22;93583.03;;;15.11;46.88
11347;BME280;5728;42.722;23.258;2023-02-25T12:03:06;93596.44;;;15.05;47.38
11347;BME280;5728;42.722;23.258;2023-02-25T12:05:48;93611.84;;;15.10;47.48
11347;BME280;5728;42.722;23.258;2023-02-25T12:08:29;93585.38;;;15.00;47.63
11347;BME280;5728;42.722;23.258;2023-02-25T12:11:32;93601.78;;;15.19;47.61
11347;BME280;5728;42.722;23.258;2023-02-25T12:20:55;93576.94;;;14.95;48.52
11347;BME280;5728;42.722;23.258;2023-02-25T12:26:42;93602.25;;;15.10;48.70
11347;BME280;5728;42.722;23.258;2023-02-25T12:29:24;93539.81;;;15.06;48.59
11347;BME280;5728;42.722;23.258;2023-02-25T12:32:22;93544.31;;;15.19;48.27
11347;BME280;5728;42.722;23.258;2023-02-25T12:35:12;93551.03;;;15.08;48.20
11347;BME280;5728;42.722;23.258;2023-02-25T12:38:06;93543.91;;;15.27;48.33
11347;BME280;5728;42.722;23.258;2023-02-25T12:40:46;93526.38;;;15.29;47.93
11347;BME280;5728;42.722;23.258;2023-02-25T12:43:24;93526.53;;;15.26;47.97
11347;BME280;5728;42.722;23.258;2023-02-25T12:46:04;93547.38;;;15.27;48.00
11347;BME280;5728;42.722;23.258;2023-02-25T12:49:00;93524.63;;;15.29;48.13
11347;BME280;5728;42.722;23.258;2023-02-25T12:51:52;93510.41;;;15.35;48.18
11347;BME280;5728;42.722;23.258;2023-02-25T12:54:35;93524.97;;;15.39;48.16
11347;BME280;5728;42.722;23.258;2023-02-25T12:57:20;93530.94;;;15.41;47.68
11347;BME280;5728;42.722;23.258;2023-02-25T12:59:59;93506.69;;;15.39;47.67
11347;BME280;5728;42.722;23.258;2023-02-25T13:02:38;93518.03;;;15.55;47.87
11347;BME280;5728;42.722;23.258;2023-02-25T13:05:24;93500.84;;;15.67;47.24
11347;BME280;5728;42.722;23.258;2023-02-25T13:08:14;93512.28;;;15.49;47.18
11347;BME280;5728;42.722;23.258;2023-02-25T13:10:53;93501.84;;;15.64;47.32
11347;BME280;5728;42.722;23.258;2023-02-25T13:13:52;93542.47;;;15.54;47.41
11347;BME280;5728;42.722;23.258;2023-02-25T13:16:39;93488.72;;;15.50;47.47
11347;BME280;5728;42.722;23.258;2023-02-25T13:19:27;93492.41;;;15.46;47.38
11347;BME280;5728;42.722;23.258;2023-02-25T13:22:08;93485.16;;;15.51;47.92
11347;BME280;5728;42.722;23.258;2023-02-25T13:24:47;93509.78;;;15.47;47.63
11347;BME280;5728;42.722;23.258;2023-02-25T13:27:37;93508.06;;;15.46;47.25
11347;BME280;5728;42.722;23.258;2023-02-25T13:30:24;93500.06;;;15.49;47.18
11347;BME280;5728;42.722;23.258;2023-02-25T13:33:00;93481.16;;;15.44;47.15
11347;BME280;5728;42.722;23.258;2023-02-25T13:35:37;93471.81;;;15.40;47.26